createdAt,value
2019-03-17T00:00:36.377Z,996.43
2019-03-17T00:01:36.407Z,996.44
2019-03-17T00:02:36.350Z,996.44
2019-03-17T00:03:36.344Z,996.41
2019-03-17T00:04:36.341Z,996.33
2019-03-17T00:05:36.356Z,996.37
2019-03-17T00:06:36.308Z,996.32
2019-03-17T00:07:36.322Z,996.36
2019-03-17T00:08:36.287Z,996.26
2019-03-17T00:09:36.277Z,996.23
2019-03-17T00:10:36.333Z,996.31
2019-03-17T00:11:36.260Z,996.27
2019-03-17T00:12:36.361Z,996.30
2019-03-17T00:13:36.272Z,996.25
2019-03-17T00:14:36.223Z,996.21
2019-03-17T00:15:36.209Z,996.22
2019-03-17T00:16:36.208Z,996.19
2019-03-17T00:17:36.196Z,996.19
2019-03-17T00:18:36.225Z,996.16
2019-03-17T00:19:36.208Z,996.12
2019-03-17T00:20:36.198Z,996.14
2019-03-17T00:21:36.164Z,996.14
2019-03-17T00:22:36.140Z,996.12
2019-03-17T00:23:36.271Z,996.12
2019-03-17T00:24:36.125Z,996.11
2019-03-17T00:25:36.102Z,996.07
2019-03-17T00:26:36.183Z,996.12
2019-03-17T00:27:36.106Z,996.03
2019-03-17T00:28:36.104Z,996.09
2019-03-17T00:29:36.062Z,996.09
2019-03-17T00:30:36.052Z,996.08
2019-03-17T00:31:36.069Z,996.07
2019-03-17T00:32:36.069Z,996.07
2019-03-17T00:33:36.609Z,996.09
2019-03-17T00:34:43.985Z,996.09
2019-03-17T00:35:37.080Z,996.08
2019-03-17T00:36:36.016Z,996.07
2019-03-17T00:37:35.995Z,996.12
2019-03-17T00:38:36.013Z,996.06
2019-03-17T00:39:35.956Z,996.10
2019-03-17T00:40:35.946Z,996.13
2019-03-17T00:41:35.979Z,996.03
2019-03-17T00:42:35.926Z,996.06
2019-03-17T00:43:35.922Z,996.01
2019-03-17T00:44:35.965Z,996.03
2019-03-17T00:45:35.940Z,996.03
2019-03-17T00:46:35.885Z,996.02
2019-03-17T00:47:35.894Z,996.02
2019-03-17T00:48:35.861Z,996.00
2019-03-17T00:49:35.851Z,995.99
2019-03-17T00:50:35.862Z,995.98
2019-03-17T00:51:35.824Z,995.99
2019-03-17T00:52:35.866Z,995.96
2019-03-17T00:53:35.841Z,995.99
2019-03-17T00:54:35.791Z,995.94
2019-03-17T00:55:35.882Z,995.93
2019-03-17T00:56:35.767Z,995.94
2019-03-17T00:57:36.009Z,995.87
2019-03-17T00:58:35.740Z,995.88
2019-03-17T00:59:35.745Z,995.83
2019-03-17T01:00:35.756Z,995.86
2019-03-17T01:01:35.716Z,995.85
2019-03-17T01:02:35.720Z,995.84
2019-03-17T01:03:35.711Z,995.85
2019-03-17T01:04:35.699Z,995.82
2019-03-17T01:05:35.701Z,995.84
2019-03-17T01:06:35.698Z,995.84
2019-03-17T01:07:35.683Z,995.84
2019-03-17T01:08:35.634Z,995.80
2019-03-17T01:09:35.627Z,995.77
2019-03-17T01:10:35.612Z,995.71
2019-03-17T01:11:35.788Z,995.73
2019-03-17T01:12:35.590Z,995.73
2019-03-17T01:13:35.598Z,995.69
2019-03-17T01:14:35.573Z,995.64
2019-03-17T01:15:35.558Z,995.65
2019-03-17T01:16:35.587Z,995.57
2019-03-17T01:17:35.535Z,995.66
2019-03-17T01:18:35.535Z,995.58
2019-03-17T01:19:35.535Z,995.56
2019-03-17T01:20:35.512Z,995.55
2019-03-17T01:21:35.536Z,995.56
2019-03-17T01:22:35.488Z,995.52
2019-03-17T01:23:35.493Z,995.51
2019-03-17T01:24:35.459Z,995.42
2019-03-17T01:25:35.483Z,995.39
2019-03-17T01:26:35.497Z,995.40
2019-03-17T01:27:35.431Z,995.41
2019-03-17T01:28:35.454Z,995.35
2019-03-17T01:29:35.428Z,995.34
2019-03-17T01:30:35.413Z,995.30
2019-03-17T01:31:35.433Z,995.28
2019-03-17T01:32:35.398Z,995.26
2019-03-17T01:33:35.381Z,995.26
2019-03-17T01:34:35.382Z,995.25
2019-03-17T01:35:35.405Z,995.26
2019-03-17T01:36:35.361Z,995.24
2019-03-17T01:37:35.330Z,995.23
2019-03-17T01:38:35.351Z,995.28
2019-03-17T01:39:35.313Z,995.27
2019-03-17T01:40:35.288Z,995.26
2019-03-17T01:41:35.336Z,995.27
2019-03-17T01:42:35.321Z,995.23
2019-03-17T01:43:35.257Z,995.22
2019-03-17T01:44:35.247Z,995.20
2019-03-17T01:45:35.236Z,995.22
2019-03-17T01:46:35.224Z,995.18
2019-03-17T01:47:35.264Z,995.17
2019-03-17T01:48:35.244Z,995.11
2019-03-17T01:49:35.193Z,995.13
2019-03-17T01:50:35.219Z,995.11
2019-03-17T01:51:35.165Z,995.05
2019-03-17T01:52:35.176Z,995.07
2019-03-17T01:53:35.174Z,995.02
2019-03-17T01:54:35.138Z,995.05
2019-03-17T01:55:35.139Z,995.05
2019-03-17T01:56:35.111Z,995.04
2019-03-17T01:57:35.111Z,995.01
2019-03-17T01:58:35.122Z,995.00
2019-03-17T01:59:35.083Z,994.98
2019-03-17T02:00:35.078Z,994.93
2019-03-17T02:01:35.113Z,994.94
2019-03-17T02:02:35.070Z,994.91
2019-03-17T02:03:35.276Z,994.91
2019-03-17T02:04:35.031Z,994.92
2019-03-17T02:05:35.023Z,994.88
2019-03-17T02:06:35.031Z,994.87
2019-03-17T02:07:35.018Z,994.89
2019-03-17T02:08:35.190Z,994.88
2019-03-17T02:09:34.978Z,994.83
2019-03-17T02:10:34.963Z,994.81
2019-03-17T02:11:34.978Z,994.82
2019-03-17T02:12:34.948Z,994.75
2019-03-17T02:13:34.976Z,994.79
2019-03-17T02:14:34.930Z,994.78
2019-03-17T02:15:35.624Z,994.82
2019-03-17T02:16:34.916Z,994.75
2019-03-17T02:17:34.884Z,994.71
2019-03-17T02:18:34.879Z,994.76
2019-03-17T02:19:34.946Z,994.72
2019-03-17T02:20:34.911Z,994.70
2019-03-17T02:21:34.859Z,994.67
2019-03-17T02:22:34.847Z,994.61
2019-03-17T02:23:34.832Z,994.60
2019-03-17T02:24:34.856Z,994.57
2019-03-17T02:25:34.803Z,994.68
2019-03-17T02:26:34.801Z,994.62
2019-03-17T02:27:34.933Z,994.58
2019-03-17T02:28:34.990Z,994.61
2019-03-17T02:29:34.771Z,994.54
2019-03-17T02:30:34.821Z,994.52
2019-03-17T02:31:34.743Z,994.57
2019-03-17T02:32:34.870Z,994.58
2019-03-17T02:33:34.737Z,994.53
2019-03-17T02:34:34.750Z,994.47
2019-03-17T02:35:39.571Z,994.45
2019-03-17T02:36:35.679Z,994.44
2019-03-17T02:37:34.754Z,994.46
2019-03-17T02:38:34.662Z,994.36
2019-03-17T02:39:34.660Z,994.42
2019-03-17T02:40:34.712Z,994.37
2019-03-17T02:41:34.626Z,994.47
2019-03-17T02:42:34.612Z,994.46
2019-03-17T02:43:34.625Z,994.44
2019-03-17T02:44:34.668Z,994.42
2019-03-17T02:45:34.631Z,994.43
2019-03-17T02:46:34.653Z,994.46
2019-03-17T02:47:34.568Z,994.39
2019-03-17T02:48:34.568Z,994.40
2019-03-17T02:49:34.552Z,994.44
2019-03-17T02:50:34.535Z,994.42
2019-03-17T02:51:34.626Z,994.34
2019-03-17T02:52:34.517Z,994.36
2019-03-17T02:53:34.510Z,994.41
2019-03-17T02:54:34.489Z,994.39
2019-03-17T02:55:34.492Z,994.39
2019-03-17T02:56:34.595Z,994.35
2019-03-17T02:57:34.468Z,994.32
2019-03-17T02:58:34.495Z,994.35
2019-03-17T02:59:34.433Z,994.35
2019-03-17T03:00:34.440Z,994.31
2019-03-17T03:01:34.451Z,994.28
2019-03-17T03:02:34.409Z,994.29
2019-03-17T03:03:34.421Z,994.27
2019-03-17T03:04:34.380Z,994.28
2019-03-17T03:05:34.372Z,994.27
2019-03-17T03:06:34.385Z,994.26
2019-03-17T03:07:34.386Z,994.23
2019-03-17T03:08:34.360Z,994.20
2019-03-17T03:09:34.353Z,994.21
2019-03-17T03:10:34.326Z,994.26
2019-03-17T03:11:34.320Z,994.27
2019-03-17T03:12:34.476Z,994.24
2019-03-17T03:13:34.281Z,994.23
2019-03-17T03:14:34.282Z,994.31
2019-03-17T03:15:34.294Z,994.31
2019-03-17T03:16:34.254Z,994.32
2019-03-17T03:17:34.363Z,994.27
2019-03-17T03:18:34.245Z,994.28
2019-03-17T03:19:34.297Z,994.33
2019-03-17T03:20:34.213Z,994.34
2019-03-17T03:21:34.223Z,994.32
2019-03-17T03:22:34.214Z,994.27
2019-03-17T03:23:34.184Z,994.31
2019-03-17T03:24:34.191Z,994.27
2019-03-17T03:25:34.197Z,994.24
2019-03-17T03:26:34.142Z,994.24
2019-03-17T03:27:34.149Z,994.22
2019-03-17T03:28:34.177Z,994.20
2019-03-17T03:29:34.119Z,994.27
2019-03-17T03:30:34.143Z,994.24
2019-03-17T03:31:34.090Z,994.23
2019-03-17T03:32:34.134Z,994.21
2019-03-17T03:33:34.102Z,994.19
2019-03-17T03:34:34.079Z,994.15
2019-03-17T03:35:34.110Z,994.11
2019-03-17T03:36:34.063Z,994.09
2019-03-17T03:37:34.021Z,994.08
2019-03-17T03:38:34.079Z,994.11
2019-03-17T03:39:34.005Z,994.15
2019-03-17T03:40:34.043Z,994.13
2019-03-17T03:41:33.993Z,994.13
2019-03-17T03:42:33.979Z,994.17
2019-03-17T03:43:33.996Z,994.18
2019-03-17T03:44:33.958Z,994.18
2019-03-17T03:45:34.026Z,994.21
2019-03-17T03:46:33.940Z,994.27
2019-03-17T03:47:33.936Z,994.24
2019-03-17T03:48:33.941Z,994.17
2019-03-17T03:49:33.899Z,994.18
2019-03-17T03:50:33.915Z,994.16
2019-03-17T03:51:33.873Z,994.05
2019-03-17T03:52:33.863Z,993.91
2019-03-17T03:53:33.910Z,993.85
2019-03-17T03:54:33.850Z,993.83
2019-03-17T03:55:33.856Z,993.73
2019-03-17T03:56:33.869Z,993.68
2019-03-17T03:57:33.832Z,993.62
2019-03-17T03:58:33.860Z,993.58
2019-03-17T03:59:33.787Z,993.56
2019-03-17T04:00:33.775Z,993.55
2019-03-17T04:01:33.783Z,993.55
2019-03-17T04:02:33.772Z,993.53
2019-03-17T04:03:33.846Z,993.44
2019-03-17T04:04:33.755Z,993.50
2019-03-17T04:05:33.722Z,993.41
2019-03-17T04:06:33.711Z,993.40
2019-03-17T04:07:33.755Z,993.39
2019-03-17T04:08:33.715Z,993.36
2019-03-17T04:09:33.717Z,993.32
2019-03-17T04:10:33.730Z,993.26
2019-03-17T04:11:33.659Z,993.27
2019-03-17T04:12:33.697Z,993.24
2019-03-17T04:13:33.667Z,993.22
2019-03-17T04:14:33.662Z,993.28
2019-03-17T04:15:33.617Z,993.25
2019-03-17T04:16:33.688Z,993.21
2019-03-17T04:17:33.593Z,993.25
2019-03-17T04:18:33.599Z,993.27
2019-03-17T04:19:33.618Z,993.27
2019-03-17T04:20:33.593Z,993.29
2019-03-17T04:21:33.559Z,993.33
2019-03-17T04:22:33.551Z,993.28
2019-03-17T04:23:33.543Z,993.39
2019-03-17T04:24:33.517Z,993.32
2019-03-17T04:25:33.530Z,993.32
2019-03-17T04:26:33.543Z,993.39
2019-03-17T04:27:33.540Z,993.39
2019-03-17T04:28:33.489Z,993.51
2019-03-17T04:29:33.466Z,993.45
2019-03-17T04:30:33.515Z,993.49
2019-03-17T04:31:33.437Z,993.49
2019-03-17T04:32:33.429Z,993.50
2019-03-17T04:33:33.443Z,993.50
2019-03-17T04:34:33.563Z,993.49
2019-03-17T04:35:33.441Z,993.50
2019-03-17T04:36:40.271Z,993.46
2019-03-17T04:37:34.382Z,993.54
2019-03-17T04:38:33.363Z,993.48
2019-03-17T04:39:33.404Z,993.57
2019-03-17T04:40:33.362Z,993.56
2019-03-17T04:41:33.370Z,993.60
2019-03-17T04:42:33.338Z,993.53
2019-03-17T04:43:33.385Z,993.65
2019-03-17T04:44:33.403Z,993.68
2019-03-17T04:45:33.285Z,993.65
2019-03-17T04:46:33.357Z,993.69
2019-03-17T04:47:33.307Z,993.67
2019-03-17T04:48:33.258Z,993.68
2019-03-17T04:49:33.261Z,993.71
2019-03-17T04:50:33.254Z,993.71
2019-03-17T04:51:33.255Z,993.75
2019-03-17T04:52:33.211Z,993.69
2019-03-17T04:53:33.280Z,993.69
2019-03-17T04:54:33.203Z,993.70
2019-03-17T04:55:33.196Z,993.68
2019-03-17T04:56:33.218Z,993.66
2019-03-17T04:57:33.154Z,993.64
2019-03-17T04:58:33.163Z,993.57
2019-03-17T04:59:33.145Z,993.60
2019-03-17T05:00:33.184Z,993.55
2019-03-17T05:01:33.222Z,993.55
2019-03-17T05:02:33.111Z,993.51
2019-03-17T05:03:33.120Z,993.53
2019-03-17T05:04:33.084Z,993.53
2019-03-17T05:05:33.078Z,993.53
2019-03-17T05:06:33.098Z,993.51
2019-03-17T05:07:33.186Z,993.52
2019-03-17T05:08:33.063Z,993.55
2019-03-17T05:09:33.032Z,993.51
2019-03-17T05:10:33.021Z,993.51
2019-03-17T05:11:33.049Z,993.57
2019-03-17T05:12:33.017Z,993.47
2019-03-17T05:13:32.998Z,993.48
2019-03-17T05:14:33.136Z,993.48
2019-03-17T05:15:33.005Z,993.48
2019-03-17T05:16:35.695Z,993.42
2019-03-17T05:17:32.988Z,993.37
2019-03-17T05:18:32.950Z,993.33
2019-03-17T05:19:32.922Z,993.37
2019-03-17T05:20:32.948Z,993.30
2019-03-17T05:21:32.908Z,993.32
2019-03-17T05:22:33.003Z,993.36
2019-03-17T05:23:32.882Z,993.37
2019-03-17T05:24:32.906Z,993.42
2019-03-17T05:25:32.889Z,993.41
2019-03-17T05:26:32.888Z,993.45
2019-03-17T05:27:32.832Z,993.44
2019-03-17T05:28:32.852Z,993.46
2019-03-17T05:29:32.834Z,993.47
2019-03-17T05:30:32.865Z,993.44
2019-03-17T05:31:32.800Z,993.50
2019-03-17T05:32:32.775Z,993.56
2019-03-17T05:33:32.847Z,993.55
2019-03-17T05:34:32.756Z,993.63
2019-03-17T05:35:32.781Z,993.62
2019-03-17T05:36:32.779Z,993.56
2019-03-17T05:37:32.767Z,993.56
2019-03-17T05:38:32.744Z,993.55
2019-03-17T05:39:32.731Z,993.52
2019-03-17T05:40:32.710Z,993.49
2019-03-17T05:41:32.694Z,993.41
2019-03-17T05:42:32.698Z,993.40
2019-03-17T05:43:32.699Z,993.42
2019-03-17T05:44:32.670Z,993.38
2019-03-17T05:45:32.636Z,993.36
2019-03-17T05:46:32.626Z,993.41
2019-03-17T05:47:32.627Z,993.40
2019-03-17T05:48:32.658Z,993.35
2019-03-17T05:49:32.598Z,993.39
2019-03-17T05:50:32.583Z,993.46
2019-03-17T05:51:32.642Z,993.40
2019-03-17T05:52:32.578Z,993.45
2019-03-17T05:53:32.594Z,993.47
2019-03-17T05:54:32.536Z,993.45
2019-03-17T05:55:32.526Z,993.49
2019-03-17T05:56:32.517Z,993.48
2019-03-17T05:57:32.543Z,993.52
2019-03-17T05:58:32.601Z,993.52
2019-03-17T05:59:32.486Z,993.55
2019-03-17T06:00:32.471Z,993.59
2019-03-17T06:01:32.473Z,993.58
2019-03-17T06:02:32.483Z,993.60
2019-03-17T06:03:32.468Z,993.57
2019-03-17T06:04:32.759Z,993.59
2019-03-17T06:05:32.426Z,993.55
2019-03-17T06:06:32.411Z,993.63
2019-03-17T06:07:32.396Z,993.65
2019-03-17T06:08:33.712Z,993.61
2019-03-17T06:09:32.435Z,993.65
2019-03-17T06:10:32.398Z,993.68
2019-03-17T06:11:32.361Z,993.78
2019-03-17T06:12:32.380Z,993.78
2019-03-17T06:13:32.370Z,993.73
2019-03-17T06:14:32.356Z,993.71
2019-03-17T06:15:32.396Z,993.74
2019-03-17T06:16:32.320Z,993.81
2019-03-17T06:17:32.294Z,993.78
2019-03-17T06:18:32.299Z,993.78
2019-03-17T06:19:32.299Z,993.70
2019-03-17T06:20:32.304Z,993.79
2019-03-17T06:21:32.268Z,993.79
2019-03-17T06:22:32.272Z,993.76
2019-03-17T06:23:32.303Z,993.70
2019-03-17T06:24:32.212Z,993.76
2019-03-17T06:25:32.225Z,993.76
2019-03-17T06:26:32.208Z,993.66
2019-03-17T06:27:32.189Z,993.65
2019-03-17T06:28:32.196Z,993.72
2019-03-17T06:29:32.165Z,993.71
2019-03-17T06:30:32.181Z,993.73
2019-03-17T06:31:32.129Z,993.81
2019-03-17T06:32:32.142Z,993.76
2019-03-17T06:33:32.127Z,993.82
2019-03-17T06:34:32.101Z,993.74
2019-03-17T06:35:32.091Z,993.71
2019-03-17T06:36:32.153Z,993.76
2019-03-17T06:37:32.132Z,993.79
2019-03-17T06:38:32.056Z,993.64
2019-03-17T06:39:32.066Z,993.60
2019-03-17T06:40:32.099Z,993.62
2019-03-17T06:41:32.053Z,993.63
2019-03-17T06:42:32.018Z,993.63
2019-03-17T06:43:32.044Z,993.64
2019-03-17T06:44:31.989Z,993.63
2019-03-17T06:45:31.981Z,993.63
2019-03-17T06:46:32.064Z,993.58
2019-03-17T06:47:31.968Z,993.76
2019-03-17T06:48:31.971Z,993.81
2019-03-17T06:49:31.960Z,993.87
2019-03-17T06:50:31.936Z,993.75
2019-03-17T06:51:31.971Z,993.81
2019-03-17T06:52:31.971Z,993.78
2019-03-17T06:53:31.894Z,993.67
2019-03-17T06:54:31.926Z,993.77
2019-03-17T06:55:31.876Z,993.79
2019-03-17T06:56:31.877Z,993.96
2019-03-17T06:57:31.887Z,993.91
2019-03-17T06:58:31.894Z,993.97
2019-03-17T06:59:31.829Z,993.94
2019-03-17T07:00:31.906Z,994.00
2019-03-17T07:01:31.813Z,993.97
2019-03-17T07:02:31.819Z,994.02
2019-03-17T07:03:31.905Z,994.06
2019-03-17T07:04:31.775Z,994.13
2019-03-17T07:05:31.767Z,994.09
2019-03-17T07:06:31.774Z,994.10
2019-03-17T07:07:43.250Z,994.07
2019-03-17T07:08:32.796Z,994.02
2019-03-17T07:09:31.746Z,993.98
2019-03-17T07:10:31.733Z,993.97
2019-03-17T07:11:31.702Z,993.95
2019-03-17T07:12:31.704Z,993.96
2019-03-17T07:13:31.743Z,994.03
2019-03-17T07:14:31.714Z,994.00
2019-03-17T07:15:31.657Z,994.05
2019-03-17T07:16:31.649Z,994.05
2019-03-17T07:17:31.636Z,994.10
2019-03-17T07:18:31.624Z,994.01
2019-03-17T07:19:31.678Z,994.10
2019-03-17T07:20:31.641Z,994.01
2019-03-17T07:21:31.635Z,993.93
2019-03-17T07:22:31.611Z,993.94
2019-03-17T07:23:34.183Z,994.04
2019-03-17T07:24:31.621Z,994.10
2019-03-17T07:25:31.622Z,994.11
2019-03-17T07:26:31.559Z,994.12
2019-03-17T07:27:31.552Z,994.18
2019-03-17T07:28:31.525Z,994.17
2019-03-17T07:29:31.547Z,994.14
2019-03-17T07:30:31.546Z,994.17
2019-03-17T07:31:31.487Z,994.15
2019-03-17T07:32:31.493Z,994.17
2019-03-17T07:33:31.478Z,994.09
2019-03-17T07:34:31.451Z,994.18
2019-03-17T07:35:31.512Z,994.22
2019-03-17T07:36:31.466Z,994.21
2019-03-17T07:37:31.455Z,994.27
2019-03-17T07:38:31.421Z,994.22
2019-03-17T07:39:31.417Z,994.23
2019-03-17T07:40:31.431Z,994.19
2019-03-17T07:41:31.393Z,994.27
2019-03-17T07:42:32.709Z,994.21
2019-03-17T07:43:31.382Z,994.21
2019-03-17T07:44:31.345Z,994.23
2019-03-17T07:45:31.375Z,994.27
2019-03-17T07:46:31.414Z,994.29
2019-03-17T07:47:31.411Z,994.32
2019-03-17T07:48:31.415Z,994.36
2019-03-17T07:49:31.480Z,994.34
2019-03-17T07:50:31.286Z,994.32
2019-03-17T07:51:31.435Z,994.32
2019-03-17T07:52:31.258Z,994.32
2019-03-17T07:53:31.260Z,994.38
2019-03-17T07:54:31.268Z,994.34
2019-03-17T07:55:31.229Z,994.44
2019-03-17T07:56:31.243Z,994.44
2019-03-17T07:57:31.207Z,994.41
2019-03-17T07:58:31.194Z,994.49
2019-03-17T07:59:31.492Z,994.42
2019-03-17T08:00:32.468Z,994.45
2019-03-17T08:01:31.182Z,994.41
2019-03-17T08:02:31.240Z,994.41
2019-03-17T08:03:31.154Z,994.41
2019-03-17T08:04:41.968Z,994.47
2019-03-17T08:05:32.346Z,994.47
2019-03-17T08:06:31.339Z,994.51
2019-03-17T08:07:31.116Z,994.53
2019-03-17T08:08:31.140Z,994.58
2019-03-17T08:09:31.212Z,994.54
2019-03-17T08:10:31.064Z,994.60
2019-03-17T08:11:31.159Z,994.58
2019-03-17T08:12:31.084Z,994.64
2019-03-17T08:13:31.127Z,994.62
2019-03-17T08:14:31.035Z,994.73
2019-03-17T08:15:31.011Z,994.74
2019-03-17T08:16:31.154Z,994.70
2019-03-17T08:17:31.002Z,994.77
2019-03-17T08:18:30.988Z,994.74
2019-03-17T08:19:30.974Z,994.87
2019-03-17T08:20:31.094Z,994.86
2019-03-17T08:21:31.033Z,994.89
2019-03-17T08:22:31.198Z,994.92
2019-03-17T08:23:30.982Z,995.03
2019-03-17T08:24:31.138Z,995.16
2019-03-17T08:25:30.914Z,995.40
2019-03-17T08:26:31.038Z,995.29
2019-03-17T08:27:30.912Z,995.46
2019-03-17T08:28:31.031Z,995.78
2019-03-17T08:29:30.862Z,995.75
2019-03-17T08:30:30.871Z,995.86
2019-03-17T08:31:30.833Z,995.85
2019-03-17T08:32:30.871Z,995.98
2019-03-17T08:33:30.891Z,996.02
2019-03-17T08:34:30.896Z,996.04
2019-03-17T08:35:30.791Z,995.96
2019-03-17T08:36:30.777Z,996.08
2019-03-17T08:37:30.817Z,996.03
2019-03-17T08:38:30.979Z,996.13
2019-03-17T08:39:30.764Z,996.13
2019-03-17T08:40:30.894Z,996.16
2019-03-17T08:41:30.830Z,996.11
2019-03-17T08:42:30.715Z,996.16
2019-03-17T08:43:30.752Z,996.21
2019-03-17T08:44:30.841Z,996.28
2019-03-17T08:45:30.678Z,996.13
2019-03-17T08:46:30.670Z,996.16
2019-03-17T08:47:30.740Z,996.25
2019-03-17T08:48:30.724Z,996.20
2019-03-17T08:49:30.715Z,996.16
2019-03-17T08:50:30.625Z,996.20
2019-03-17T08:51:30.741Z,996.16
2019-03-17T08:52:30.603Z,996.27
2019-03-17T08:53:30.653Z,996.32
2019-03-17T08:54:30.628Z,996.25
2019-03-17T08:55:30.577Z,996.24
2019-03-17T08:56:30.606Z,996.23
2019-03-17T08:57:30.591Z,996.26
2019-03-17T08:58:30.766Z,996.20
2019-03-17T08:59:30.549Z,996.17
2019-03-17T09:00:30.690Z,996.08
2019-03-17T09:01:30.502Z,996.13
2019-03-17T09:02:30.495Z,996.09
2019-03-17T09:03:30.664Z,996.11
2019-03-17T09:04:30.473Z,996.15
2019-03-17T09:05:30.462Z,996.06
2019-03-17T09:06:30.462Z,996.04
2019-03-17T09:07:30.542Z,996.11
2019-03-17T09:08:35.207Z,996.07
2019-03-17T09:09:31.428Z,996.09
2019-03-17T09:10:30.420Z,996.05
2019-03-17T09:11:30.559Z,996.06
2019-03-17T09:12:30.395Z,996.08
2019-03-17T09:13:30.400Z,996.04
2019-03-17T09:14:30.578Z,995.95
2019-03-17T09:15:30.477Z,995.98
2019-03-17T09:16:30.345Z,996.08
2019-03-17T09:17:30.371Z,996.17
2019-03-17T09:18:30.510Z,996.32
2019-03-17T09:19:30.426Z,996.29
2019-03-17T09:20:30.309Z,996.26
2019-03-17T09:21:30.291Z,996.30
2019-03-17T09:22:30.308Z,996.37
2019-03-17T09:23:30.269Z,996.30
2019-03-17T09:24:30.298Z,996.25
2019-03-17T09:25:30.247Z,996.25
2019-03-17T09:26:30.421Z,996.15
2019-03-17T09:27:30.381Z,996.08
2019-03-17T09:28:30.224Z,996.05
2019-03-17T09:29:30.339Z,996.06
2019-03-17T09:30:30.242Z,996.07
2019-03-17T09:31:30.223Z,996.13
2019-03-17T09:32:30.170Z,996.14
2019-03-17T09:33:30.181Z,996.15
2019-03-17T09:34:30.159Z,996.17
2019-03-17T09:35:30.213Z,996.15
2019-03-17T09:36:32.301Z,996.16
2019-03-17T09:37:30.220Z,996.17
2019-03-17T09:38:30.310Z,996.24
2019-03-17T09:39:30.115Z,996.24
2019-03-17T09:40:30.248Z,996.24
2019-03-17T09:41:30.080Z,996.25
2019-03-17T09:42:30.137Z,996.21
2019-03-17T09:43:30.048Z,996.26
2019-03-17T09:44:30.077Z,996.16
2019-03-17T09:45:30.184Z,996.20
2019-03-17T09:46:30.049Z,996.13
2019-03-17T09:47:30.033Z,996.10
2019-03-17T09:48:30.018Z,996.06
2019-03-17T09:49:29.989Z,996.11
2019-03-17T09:50:29.985Z,996.16
2019-03-17T09:51:30.013Z,996.19
2019-03-17T09:52:29.971Z,996.16
2019-03-17T09:53:29.965Z,996.16
2019-03-17T09:54:29.964Z,996.16
2019-03-17T09:55:30.008Z,996.32
2019-03-17T09:56:29.948Z,996.41
2019-03-17T09:57:29.910Z,996.41
2019-03-17T09:58:30.976Z,996.39
2019-03-17T09:59:29.890Z,996.36
2019-03-17T10:00:29.886Z,996.42
2019-03-17T10:01:29.932Z,996.47
2019-03-17T10:02:29.934Z,996.38
2019-03-17T10:03:29.907Z,996.37
2019-03-17T10:04:29.986Z,996.37
2019-03-17T10:05:29.815Z,996.31
2019-03-17T10:06:29.880Z,996.28
2019-03-17T10:07:29.826Z,996.19
2019-03-17T10:08:29.782Z,996.23
2019-03-17T10:09:29.781Z,996.25
2019-03-17T10:10:29.792Z,996.20
2019-03-17T10:11:29.845Z,996.24
2019-03-17T10:12:29.855Z,996.24
2019-03-17T10:13:29.752Z,996.23
2019-03-17T10:14:30.282Z,996.20
2019-03-17T10:15:29.781Z,996.21
2019-03-17T10:16:29.760Z,996.20
2019-03-17T10:17:29.724Z,996.21
2019-03-17T10:18:29.719Z,996.25
2019-03-17T10:19:29.675Z,996.25
2019-03-17T10:20:29.649Z,996.15
2019-03-17T10:22:20.991Z,996.24
2019-03-17T10:23:20.997Z,996.28
2019-03-17T10:24:20.972Z,996.25
2019-03-17T10:25:20.951Z,996.23
2019-03-17T10:26:20.939Z,996.32
2019-03-17T10:27:20.933Z,996.29
2019-03-17T10:28:20.962Z,996.38
2019-03-17T10:29:20.921Z,996.32
2019-03-17T10:30:20.963Z,996.34
2019-03-17T10:31:20.896Z,996.36
2019-03-17T10:32:20.880Z,996.43
2019-03-17T10:33:20.986Z,996.45
2019-03-17T10:34:20.855Z,996.39
2019-03-17T10:35:20.852Z,996.50
2019-03-17T10:36:20.880Z,996.42
2019-03-17T10:37:20.823Z,996.42
2019-03-17T10:38:20.857Z,996.37
2019-03-17T10:39:20.830Z,996.48
2019-03-17T10:40:20.797Z,996.39
2019-03-17T10:41:20.780Z,996.41
2019-03-17T10:42:20.783Z,996.39
2019-03-17T10:43:20.780Z,996.25
2019-03-17T10:44:20.753Z,996.40
2019-03-17T10:45:20.784Z,996.36
2019-03-17T10:46:20.737Z,996.33
2019-03-17T10:47:20.715Z,996.35
2019-03-17T10:48:20.755Z,996.35
2019-03-17T10:49:20.742Z,996.26
2019-03-17T10:50:20.684Z,996.23
2019-03-17T10:51:20.687Z,996.23
2019-03-17T10:52:20.665Z,996.29
2019-03-17T10:53:20.697Z,996.27
2019-03-17T10:54:20.638Z,996.27
2019-03-17T10:55:20.628Z,996.35
2019-03-17T10:56:20.654Z,996.26
2019-03-17T10:57:20.621Z,996.31
2019-03-17T10:58:20.632Z,996.33
2019-03-17T10:59:20.691Z,996.29
2019-03-17T11:00:20.637Z,996.41
2019-03-17T11:01:20.573Z,996.37
2019-03-17T11:02:20.555Z,996.35
2019-03-17T11:03:20.619Z,996.35
2019-03-17T11:04:20.546Z,996.42
2019-03-17T11:05:20.555Z,996.38
2019-03-17T11:06:20.653Z,996.34
2019-03-17T11:07:20.556Z,996.33
2019-03-17T11:08:20.499Z,996.41
2019-03-17T11:09:25.108Z,996.37
2019-03-17T11:10:20.524Z,996.40
2019-03-17T11:11:20.488Z,996.35
2019-03-17T11:12:20.454Z,996.44
2019-03-17T11:13:20.442Z,996.37
2019-03-17T11:14:20.450Z,996.38
2019-03-17T11:15:20.439Z,996.49
2019-03-17T11:16:20.404Z,996.57
2019-03-17T11:17:20.397Z,996.62
2019-03-17T11:18:20.398Z,996.70
2019-03-17T11:19:20.382Z,996.71
2019-03-17T11:20:20.405Z,996.72
2019-03-17T11:21:20.362Z,996.74
2019-03-17T11:22:20.373Z,996.69
2019-03-17T11:23:20.380Z,996.70
2019-03-17T11:24:20.324Z,996.68
2019-03-17T11:25:20.317Z,996.80
2019-03-17T11:26:20.402Z,996.72
2019-03-17T11:27:20.286Z,996.76
2019-03-17T11:28:20.297Z,996.82
2019-03-17T11:29:20.723Z,996.85
2019-03-17T11:30:20.256Z,996.96
2019-03-17T11:31:20.354Z,996.89
2019-03-17T11:32:20.279Z,997.02
2019-03-17T11:33:20.222Z,997.06
2019-03-17T11:34:20.211Z,997.05
2019-03-17T11:35:20.238Z,996.95
2019-03-17T11:36:20.217Z,996.94
2019-03-17T11:37:20.197Z,996.89
2019-03-17T11:38:20.191Z,996.94
2019-03-17T11:39:20.167Z,997.02
2019-03-17T11:40:22.003Z,997.01
2019-03-17T11:41:20.195Z,997.02
2019-03-17T11:42:20.130Z,996.96
2019-03-17T11:43:20.126Z,996.93
2019-03-17T11:44:20.201Z,996.96
2019-03-17T11:45:20.106Z,997.11
2019-03-17T11:46:20.192Z,996.98
2019-03-17T11:47:20.116Z,996.94
2019-03-17T11:48:20.137Z,996.99
2019-03-17T11:49:20.077Z,996.85
2019-03-17T11:50:20.065Z,997.03
2019-03-17T11:51:20.084Z,996.95
2019-03-17T11:52:20.021Z,996.89
2019-03-17T11:53:20.006Z,996.94
2019-03-17T11:54:19.995Z,996.86
2019-03-17T11:55:20.046Z,996.90
2019-03-17T11:56:19.997Z,996.85
2019-03-17T11:57:20.001Z,996.83
2019-03-17T11:58:19.954Z,996.82
2019-03-17T11:59:19.947Z,996.85
2019-03-17T12:00:19.956Z,996.97
2019-03-17T12:01:19.929Z,996.95
2019-03-17T12:02:26.367Z,996.93
2019-03-17T12:03:20.900Z,997.17
2019-03-17T12:04:19.894Z,997.18
2019-03-17T12:05:19.950Z,997.02
2019-03-17T12:06:19.875Z,997.06
2019-03-17T12:07:19.917Z,997.05
2019-03-17T12:08:19.870Z,997.17
2019-03-17T12:09:28.486Z,997.16
2019-03-17T12:10:20.830Z,997.22
2019-03-17T12:11:19.820Z,997.26
2019-03-17T12:12:19.801Z,997.34
2019-03-17T12:13:19.869Z,997.29
2019-03-17T12:14:19.779Z,997.34
2019-03-17T12:15:19.786Z,997.34
2019-03-17T12:16:19.782Z,997.34
2019-03-17T12:17:19.747Z,997.34
2019-03-17T12:18:19.767Z,997.24
2019-03-17T12:19:19.727Z,997.23
2019-03-17T12:20:19.744Z,997.19
2019-03-17T12:21:19.713Z,997.26
2019-03-17T12:22:19.701Z,997.18
2019-03-17T12:23:19.782Z,997.13
2019-03-17T12:24:19.671Z,997.15
2019-03-17T12:25:19.694Z,997.29
2019-03-17T12:26:19.653Z,997.44
2019-03-17T12:27:19.648Z,997.45
2019-03-17T12:28:19.779Z,997.27
2019-03-17T12:29:19.623Z,997.33